sensor_id;sensor_type;location;lat;lon;timestamp;temperature;humidity
41904;DHT22;27586;51.124;4.182;2022-09-02T00:00:49;19.30;88.00
41904;DHT22;27586;51.124;4.182;2022-09-02T00:03:15;19.30;88.20
41904;DHT22;27586;51.124;4.182;2022-09-02T00:05:41;19.30;88.40
41904;DHT22;27586;51.124;4.182;2022-09-02T00:08:08;19.20;88.20
41904;DHT22;27586;51.124;4.182;2022-09-02T00:10:35;19.20;88.60
41904;DHT22;27586;51.124;4.182;2022-09-02T00:13:02;19.20;88.80
41904;DHT22;27586;51.124;4.182;2022-09-02T00:15:28;19.20;88.50
41904;DHT22;27586;51.124;4.182;2022-09-02T00:17:54;19.20;88.80
41904;DHT22;27586;51.124;4.182;2022-09-02T00:20:19;19.20;88.80
41904;DHT22;27586;51.124;4.182;2022-09-02T00:22:45;19.10;88.70
41904;DHT22;27586;51.124;4.182;2022-09-02T00:25:11;19.10;88.90
41904;DHT22;27586;51.124;4.182;2022-09-02T00:27:37;19.20;88.60
41904;DHT22;27586;51.124;4.182;2022-09-02T00:30:04;19.20;88.80
41904;DHT22;27586;51.124;4.182;2022-09-02T00:32:30;19.20;89.00
41904;DHT22;27586;51.124;4.182;2022-09-02T00:34:56;19.10;89.20
41904;DHT22;27586;51.124;4.182;2022-09-02T00:37:24;19.00;89.60
41904;DHT22;27586;51.124;4.182;2022-09-02T00:39:51;18.90;89.70
41904;DHT22;27586;51.124;4.182;2022-09-02T00:42:18;18.90;89.40
41904;DHT22;27586;51.124;4.182;2022-09-02T00:44:44;19.00;89.50
41904;DHT22;27586;51.124;4.182;2022-09-02T00:47:10;18.90;89.80
41904;DHT22;27586;51.124;4.182;2022-09-02T00:49:38;18.90;89.60
41904;DHT22;27586;51.124;4.182;2022-09-02T00:52:12;18.90;89.50
41904;DHT22;27586;51.124;4.182;2022-09-02T00:54:45;18.90;89.70
41904;DHT22;27586;51.124;4.182;2022-09-02T00:57:14;18.80;90.00
41904;DHT22;27586;51.124;4.182;2022-09-02T01:02:31;18.70;90.20
41904;DHT22;27586;51.124;4.182;2022-09-02T01:04:58;18.80;90.20
41904;DHT22;27586;51.124;4.182;2022-09-02T01:07:27;18.80;90.20
41904;DHT22;27586;51.124;4.182;2022-09-02T01:09:55;18.80;90.30
41904;DHT22;27586;51.124;4.182;2022-09-02T01:12:21;18.70;90.10
41904;DHT22;27586;51.124;4.182;2022-09-02T01:14:47;18.70;90.30
41904;DHT22;27586;51.124;4.182;2022-09-02T01:17:13;18.60;90.30
41904;DHT22;27586;51.124;4.182;2022-09-02T01:19:48;18.60;90.30
41904;DHT22;27586;51.124;4.182;2022-09-02T01:22:21;18.60;90.30
41904;DHT22;27586;51.124;4.182;2022-09-02T01:24:47;18.60;90.40
41904;DHT22;27586;51.124;4.182;2022-09-02T01:27:17;18.60;90.50
41904;DHT22;27586;51.124;4.182;2022-09-02T01:29:45;18.60;90.40
41904;DHT22;27586;51.124;4.182;2022-09-02T01:32:14;18.50;90.50
41904;DHT22;27586;51.124;4.182;2022-09-02T01:34:40;18.40;90.60
41904;DHT22;27586;51.124;4.182;2022-09-02T01:37:06;18.50;90.70
41904;DHT22;27586;51.124;4.182;2022-09-02T01:39:32;18.40;90.70
41904;DHT22;27586;51.124;4.182;2022-09-02T01:41:57;18.40;90.80
41904;DHT22;27586;51.124;4.182;2022-09-02T01:44:24;18.30;90.80
41904;DHT22;27586;51.124;4.182;2022-09-02T01:46:52;18.30;90.70
41904;DHT22;27586;51.124;4.182;2022-09-02T01:49:19;18.30;90.70
41904;DHT22;27586;51.124;4.182;2022-09-02T01:51:45;18.30;90.70
41904;DHT22;27586;51.124;4.182;2022-09-02T01:54:11;18.30;90.90
41904;DHT22;27586;51.124;4.182;2022-09-02T01:56:37;18.20;91.10
41904;DHT22;27586;51.124;4.182;2022-09-02T01:59:04;18.20;90.90
41904;DHT22;27586;51.124;4.182;2022-09-02T02:01:33;18.10;90.90
41904;DHT22;27586;51.124;4.182;2022-09-02T02:03:59;18.10;91.20
41904;DHT22;27586;51.124;4.182;2022-09-02T02:06:26;18.10;91.20
41904;DHT22;27586;51.124;4.182;2022-09-02T02:08:52;18.00;91.30
41904;DHT22;27586;51.124;4.182;2022-09-02T02:11:23;18.00;91.30
41904;DHT22;27586;51.124;4.182;2022-09-02T02:13:49;18.00;91.40
41904;DHT22;27586;51.124;4.182;2022-09-02T02:16:15;18.00;91.40
41904;DHT22;27586;51.124;4.182;2022-09-02T02:18:41;17.90;91.40
41904;DHT22;27586;51.124;4.182;2022-09-02T02:21:07;17.90;91.60
41904;DHT22;27586;51.124;4.182;2022-09-02T02:23:33;17.80;91.80
41904;DHT22;27586;51.124;4.182;2022-09-02T02:25:58;17.80;91.80
41904;DHT22;27586;51.124;4.182;2022-09-02T02:28:25;17.90;91.90
41904;DHT22;27586;51.124;4.182;2022-09-02T02:30:51;17.80;91.70
41904;DHT22;27586;51.124;4.182;2022-09-02T02:33:18;17.70;91.80
41904;DHT22;27586;51.124;4.182;2022-09-02T02:35:43;17.70;91.80
41904;DHT22;27586;51.124;4.182;2022-09-02T02:38:09;17.70;91.90
41904;DHT22;27586;51.124;4.182;2022-09-02T02:40:35;17.70;92.00
41904;DHT22;27586;51.124;4.182;2022-09-02T02:43:01;17.60;92.10
41904;DHT22;27586;51.124;4.182;2022-09-02T02:45:27;17.60;92.30
41904;DHT22;27586;51.124;4.182;2022-09-02T02:47:53;17.60;92.30
41904;DHT22;27586;51.124;4.182;2022-09-02T02:50:20;17.70;92.10
41904;DHT22;27586;51.124;4.182;2022-09-02T02:52:46;17.80;92.20
41904;DHT22;27586;51.124;4.182;2022-09-02T02:55:14;17.60;92.30
41904;DHT22;27586;51.124;4.182;2022-09-02T02:57:40;17.70;92.20
41904;DHT22;27586;51.124;4.182;2022-09-02T03:00:20;17.70;92.20
41904;DHT22;27586;51.124;4.182;2022-09-02T03:02:46;17.60;92.30
41904;DHT22;27586;51.124;4.182;2022-09-02T03:05:16;17.70;92.30
41904;DHT22;27586;51.124;4.182;2022-09-02T03:07:42;17.60;92.30
41904;DHT22;27586;51.124;4.182;2022-09-02T03:10:10;17.60;92.30
41904;DHT22;27586;51.124;4.182;2022-09-02T03:12:37;17.50;92.40
41904;DHT22;27586;51.124;4.182;2022-09-02T03:15:05;17.50;92.40
41904;DHT22;27586;51.124;4.182;2022-09-02T03:17:31;17.50;92.50
41904;DHT22;27586;51.124;4.182;2022-09-02T03:19:57;17.40;92.90
41904;DHT22;27586;51.124;4.182;2022-09-02T03:22:23;17.30;92.80
41904;DHT22;27586;51.124;4.182;2022-09-02T03:24:49;17.50;92.90
41904;DHT22;27586;51.124;4.182;2022-09-02T03:27:15;17.50;93.00
41904;DHT22;27586;51.124;4.182;2022-09-02T03:29:41;17.40;93.00
41904;DHT22;27586;51.124;4.182;2022-09-02T03:32:06;17.40;93.10
41904;DHT22;27586;51.124;4.182;2022-09-02T03:34:33;17.40;93.10
41904;DHT22;27586;51.124;4.182;2022-09-02T03:36:58;17.30;93.20
41904;DHT22;27586;51.124;4.182;2022-09-02T03:39:24;17.30;93.20
41904;DHT22;27586;51.124;4.182;2022-09-02T03:41:50;17.30;93.30
41904;DHT22;27586;51.124;4.182;2022-09-02T03:44:17;17.30;93.30
41904;DHT22;27586;51.124;4.182;2022-09-02T03:46:44;17.30;93.50
41904;DHT22;27586;51.124;4.182;2022-09-02T03:49:09;17.40;93.40
41904;DHT22;27586;51.124;4.182;2022-09-02T03:51:39;17.30;93.50
41904;DHT22;27586;51.124;4.182;2022-09-02T03:54:06;17.30;93.60
41904;DHT22;27586;51.124;4.182;2022-09-02T03:56:33;17.30;93.70
41904;DHT22;27586;51.124;4.182;2022-09-02T03:58:59;17.20;93.90
41904;DHT22;27586;51.124;4.182;2022-09-02T04:01:25;17.10;94.30
41904;DHT22;27586;51.124;4.182;2022-09-02T04:03:51;17.10;94.20
41904;DHT22;27586;51.124;4.182;2022-09-02T04:06:18;17.00;94.00
41904;DHT22;27586;51.124;4.182;2022-09-02T04:08:46;17.00;94.10
41904;DHT22;27586;51.124;4.182;2022-09-02T04:11:14;17.00;94.10
41904;DHT22;27586;51.124;4.182;2022-09-02T04:13:42;17.10;94.10
41904;DHT22;27586;51.124;4.182;2022-09-02T04:16:14;17.10;94.10
41904;DHT22;27586;51.124;4.182;2022-09-02T04:18:40;17.10;94.10
41904;DHT22;27586;51.124;4.182;2022-09-02T04:21:07;17.10;94.00
41904;DHT22;27586;51.124;4.182;2022-09-02T04:23:33;17.10;94.10
41904;DHT22;27586;51.124;4.182;2022-09-02T04:26:03;16.90;94.30
41904;DHT22;27586;51.124;4.182;2022-09-02T04:28:29;16.90;94.30
41904;DHT22;27586;51.124;4.182;2022-09-02T04:30:54;16.80;94.50
41904;DHT22;27586;51.124;4.182;2022-09-02T04:33:20;16.90;94.50
41904;DHT22;27586;51.124;4.182;2022-09-02T04:35:46;17.00;94.50
41904;DHT22;27586;51.124;4.182;2022-09-02T04:38:16;17.00;94.30
41904;DHT22;27586;51.124;4.182;2022-09-02T04:40:44;17.00;94.40
41904;DHT22;27586;51.124;4.182;2022-09-02T04:43:10;17.00;94.50
41904;DHT22;27586;51.124;4.182;2022-09-02T04:45:44;17.00;94.60
41904;DHT22;27586;51.124;4.182;2022-09-02T04:48:10;17.00;94.70
41904;DHT22;27586;51.124;4.182;2022-09-02T04:50:39;16.90;94.80
41904;DHT22;27586;51.124;4.182;2022-09-02T04:53:05;16.90;94.80
41904;DHT22;27586;51.124;4.182;2022-09-02T04:55:32;16.90;94.70
41904;DHT22;27586;51.124;4.182;2022-09-02T04:57:58;17.00;94.70
41904;DHT22;27586;51.124;4.182;2022-09-02T05:00:24;16.90;94.80
41904;DHT22;27586;51.124;4.182;2022-09-02T05:02:52;16.90;94.90
41904;DHT22;27586;51.124;4.182;2022-09-02T05:05:17;16.90;95.00
41904;DHT22;27586;51.124;4.182;2022-09-02T05:07:43;17.00;94.90
41904;DHT22;27586;51.124;4.182;2022-09-02T05:10:09;16.90;95.00
41904;DHT22;27586;51.124;4.182;2022-09-02T05:12:39;16.90;95.00
41904;DHT22;27586;51.124;4.182;2022-09-02T05:15:07;16.90;95.10
41904;DHT22;27586;51.124;4.182;2022-09-02T05:17:33;16.80;95.10
41904;DHT22;27586;51.124;4.182;2022-09-02T05:20:03;16.90;95.10
41904;DHT22;27586;51.124;4.182;2022-09-02T05:22:29;16.90;95.10
41904;DHT22;27586;51.124;4.182;2022-09-02T05:24:55;16.80;95.20
41904;DHT22;27586;51.124;4.182;2022-09-02T05:27:21;16.80;95.40
41904;DHT22;27586;51.124;4.182;2022-09-02T05:29:48;16.80;95.60
41904;DHT22;27586;51.124;4.182;2022-09-02T05:32:14;16.80;95.50
41904;DHT22;27586;51.124;4.182;2022-09-02T05:34:40;16.80;95.70
41904;DHT22;27586;51.124;4.182;2022-09-02T05:37:06;16.80;95.70
41904;DHT22;27586;51.124;4.182;2022-09-02T05:39:32;16.80;95.80
41904;DHT22;27586;51.124;4.182;2022-09-02T05:41:57;16.80;95.90
41904;DHT22;27586;51.124;4.182;2022-09-02T05:44:23;16.80;96.00
41904;DHT22;27586;51.124;4.182;2022-09-02T05:46:49;16.90;96.00
41904;DHT22;27586;51.124;4.182;2022-09-02T05:49:15;16.80;96.00
41904;DHT22;27586;51.124;4.182;2022-09-02T05:54:16;16.90;96.20
41904;DHT22;27586;51.124;4.182;2022-09-02T05:56:44;16.90;96.10
41904;DHT22;27586;51.124;4.182;2022-09-02T05:59:10;17.00;96.10
41904;DHT22;27586;51.124;4.182;2022-09-02T06:01:36;17.10;96.30
41904;DHT22;27586;51.124;4.182;2022-09-02T06:04:04;17.00;96.40
41904;DHT22;27586;51.124;4.182;2022-09-02T06:06:30;17.00;96.40
41904;DHT22;27586;51.124;4.182;2022-09-02T06:08:57;17.10;96.50
41904;DHT22;27586;51.124;4.182;2022-09-02T06:11:24;17.20;96.60
41904;DHT22;27586;51.124;4.182;2022-09-02T06:13:50;17.30;96.30
41904;DHT22;27586;51.124;4.182;2022-09-02T06:16:19;17.40;96.10
41904;DHT22;27586;51.124;4.182;2022-09-02T06:18:46;17.90;96.00
41904;DHT22;27586;51.124;4.182;2022-09-02T06:21:13;18.30;95.60
41904;DHT22;27586;51.124;4.182;2022-09-02T06:23:40;18.50;95.20
41904;DHT22;27586;51.124;4.182;2022-09-02T06:26:07;18.80;94.90
41904;DHT22;27586;51.124;4.182;2022-09-02T06:28:33;18.90;94.30
41904;DHT22;27586;51.124;4.182;2022-09-02T06:31:05;18.90;94.40
41904;DHT22;27586;51.124;4.182;2022-09-02T06:33:31;19.10;94.20
41904;DHT22;27586;51.124;4.182;2022-09-02T06:35:56;19.00;94.20
41904;DHT22;27586;51.124;4.182;2022-09-02T06:38:22;19.00;94.20
41904;DHT22;27586;51.124;4.182;2022-09-02T06:40:53;19.00;94.10
41904;DHT22;27586;51.124;4.182;2022-09-02T06:43:20;18.90;94.40
41904;DHT22;27586;51.124;4.182;2022-09-02T06:45:46;18.90;94.50
41904;DHT22;27586;51.124;4.182;2022-09-02T06:48:12;18.90;94.60
41904;DHT22;27586;51.124;4.182;2022-09-02T06:50:44;19.00;94.20
41904;DHT22;27586;51.124;4.182;2022-09-02T06:53:11;19.20;94.40
41904;DHT22;27586;51.124;4.182;2022-09-02T06:55:39;19.30;94.10
41904;DHT22;27586;51.124;4.182;2022-09-02T06:58:05;19.50;94.40
41904;DHT22;27586;51.124;4.182;2022-09-02T07:00:31;19.50;94.00
41904;DHT22;27586;51.124;4.182;2022-09-02T07:02:57;19.50;93.80
41904;DHT22;27586;51.124;4.182;2022-09-02T07:05:42;19.50;93.80
41904;DHT22;27586;51.124;4.182;2022-09-02T07:08:07;19.50;93.80
41904;DHT22;27586;51.124;4.182;2022-09-02T07:10:37;19.60;93.90
41904;DHT22;27586;51.124;4.182;2022-09-02T07:13:04;19.70;93.90
41904;DHT22;27586;51.124;4.182;2022-09-02T07:15:30;19.80;93.70
41904;DHT22;27586;51.124;4.182;2022-09-02T07:17:56;19.90;93.80
41904;DHT22;27586;51.124;4.182;2022-09-02T07:20:23;20.00;93.80
41904;DHT22;27586;51.124;4.182;2022-09-02T07:22:49;20.10;93.80
41904;DHT22;27586;51.124;4.182;2022-09-02T07:25:15;20.40;93.80
41904;DHT22;27586;51.124;4.182;2022-09-02T07:27:41;20.60;93.70
41904;DHT22;27586;51.124;4.182;2022-09-02T07:30:09;20.70;93.40
41904;DHT22;27586;51.124;4.182;2022-09-02T07:32:37;20.70;93.20
41904;DHT22;27586;51.124;4.182;2022-09-02T07:35:04;20.70;93.20
41904;DHT22;27586;51.124;4.182;2022-09-02T07:37:31;20.80;93.40
41904;DHT22;27586;51.124;4.182;2022-09-02T07:40:00;21.00;93.20
41904;DHT22;27586;51.124;4.182;2022-09-02T07:42:26;21.20;93.10
41904;DHT22;27586;51.124;4.182;2022-09-02T07:44:52;21.30;92.80
41904;DHT22;27586;51.124;4.182;2022-09-02T07:47:18;21.40;92.90
41904;DHT22;27586;51.124;4.182;2022-09-02T07:49:43;21.60;92.80
41904;DHT22;27586;51.124;4.182;2022-09-02T07:52:09;21.80;92.60
41904;DHT22;27586;51.124;4.182;2022-09-02T07:54:35;22.00;92.60
41904;DHT22;27586;51.124;4.182;2022-09-02T07:57:00;22.20;92.60
41904;DHT22;27586;51.124;4.182;2022-09-02T07:59:26;22.20;92.50
41904;DHT22;27586;51.124;4.182;2022-09-02T08:01:52;22.40;92.50
41904;DHT22;27586;51.124;4.182;2022-09-02T08:04:19;22.30;92.20
41904;DHT22;27586;51.124;4.182;2022-09-02T08:06:48;22.40;92.30
41904;DHT22;27586;51.124;4.182;2022-09-02T08:09:15;22.40;92.20
41904;DHT22;27586;51.124;4.182;2022-09-02T08:11:43;22.40;91.60
41904;DHT22;27586;51.124;4.182;2022-09-02T08:14:13;22.70;91.60
41904;DHT22;27586;51.124;4.182;2022-09-02T08:16:39;22.70;91.40
41904;DHT22;27586;51.124;4.182;2022-09-02T08:19:06;22.70;91.00
41904;DHT22;27586;51.124;4.182;2022-09-02T08:21:32;22.90;91.30
41904;DHT22;27586;51.124;4.182;2022-09-02T08:23:57;22.90;90.80
41904;DHT22;27586;51.124;4.182;2022-09-02T08:26:24;23.10;91.10
41904;DHT22;27586;51.124;4.182;2022-09-02T08:28:53;23.30;91.00
41904;DHT22;27586;51.124;4.182;2022-09-02T08:31:19;23.30;90.80
41904;DHT22;27586;51.124;4.182;2022-09-02T08:33:45;23.20;90.90
41904;DHT22;27586;51.124;4.182;2022-09-02T08:36:10;23.30;91.00
41904;DHT22;27586;51.124;4.182;2022-09-02T08:38:40;23.20;90.60
41904;DHT22;27586;51.124;4.182;2022-09-02T08:41:23;23.20;90.40
41904;DHT22;27586;51.124;4.182;2022-09-02T08:43:52;23.40;90.50
41904;DHT22;27586;51.124;4.182;2022-09-02T08:46:21;23.50;90.70
41904;DHT22;27586;51.124;4.182;2022-09-02T08:48:57;23.70;90.50
41904;DHT22;27586;51.124;4.182;2022-09-02T08:51:30;23.70;90.30
41904;DHT22;27586;51.124;4.182;2022-09-02T08:54:06;23.80;90.40
41904;DHT22;27586;51.124;4.182;2022-09-02T08:56:32;23.90;90.00
41904;DHT22;27586;51.124;4.182;2022-09-02T08:58:58;24.00;90.00
41904;DHT22;27586;51.124;4.182;2022-09-02T09:17:59;24.90;88.60
41904;DHT22;27586;51.124;4.182;2022-09-02T09:20:30;24.80;88.60
41904;DHT22;27586;51.124;4.182;2022-09-02T09:22:59;24.90;88.80
41904;DHT22;27586;51.124;4.182;2022-09-02T09:25:27;24.90;88.00
41904;DHT22;27586;51.124;4.182;2022-09-02T09:27:57;25.00;89.00
41904;DHT22;27586;51.124;4.182;2022-09-02T09:30:23;25.30;89.40
41904;DHT22;27586;51.124;4.182;2022-09-02T09:32:56;25.40;88.10
41904;DHT22;27586;51.124;4.182;2022-09-02T09:35:25;25.30;88.10
41904;DHT22;27586;51.124;4.182;2022-09-02T09:37:52;25.30;88.40
41904;DHT22;27586;51.124;4.182;2022-09-02T09:45:29;25.70;87.90
41904;DHT22;27586;51.124;4.182;2022-09-02T09:50:32;25.70;87.00
41904;DHT22;27586;51.124;4.182;2022-09-02T09:56:24;25.70;87.60
41904;DHT22;27586;51.124;4.182;2022-09-02T09:58:51;25.70;87.90
41904;DHT22;27586;51.124;4.182;2022-09-02T10:01:21;25.70;87.40
41904;DHT22;27586;51.124;4.182;2022-09-02T10:03:59;25.90;88.70
41904;DHT22;27586;51.124;4.182;2022-09-02T10:11:35;26.00;87.50
41904;DHT22;27586;51.124;4.182;2022-09-02T10:14:06;26.10;87.10
41904;DHT22;27586;51.124;4.182;2022-09-02T10:19:27;25.90;87.10
41904;DHT22;27586;51.124;4.182;2022-09-02T10:22:17;26.40;88.60
41904;DHT22;27586;51.124;4.182;2022-09-02T10:27:43;26.80;85.90
41904;DHT22;27586;51.124;4.182;2022-09-02T10:30:20;26.60;85.00
41904;DHT22;27586;51.124;4.182;2022-09-02T10:32:56;26.60;86.30
41904;DHT22;27586;51.124;4.182;2022-09-02T10:46:39;26.30;86.80
41904;DHT22;27586;51.124;4.182;2022-09-02T10:55:02;26.60;86.60
41904;DHT22;27586;51.124;4.182;2022-09-02T10:57:41;26.70;86.30
41904;DHT22;27586;51.124;4.182;2022-09-02T11:00:11;26.80;86.40
41904;DHT22;27586;51.124;4.182;2022-09-02T11:02:42;26.90;85.80
41904;DHT22;27586;51.124;4.182;2022-09-02T11:05:33;26.90;84.80
41904;DHT22;27586;51.124;4.182;2022-09-02T11:08:22;27.00;85.90
41904;DHT22;27586;51.124;4.182;2022-09-02T11:11:10;26.80;84.90
41904;DHT22;27586;51.124;4.182;2022-09-02T11:16:22;26.50;85.00
41904;DHT22;27586;51.124;4.182;2022-09-02T11:24:04;26.60;84.20
41904;DHT22;27586;51.124;4.182;2022-09-02T11:26:46;26.60;83.90
41904;DHT22;27586;51.124;4.182;2022-09-02T11:29:20;26.50;84.70
41904;DHT22;27586;51.124;4.182;2022-09-02T11:32:04;26.50;84.60
41904;DHT22;27586;51.124;4.182;2022-09-02T11:34:46;26.80;85.10
41904;DHT22;27586;51.124;4.182;2022-09-02T11:37:38;26.80;83.30
41904;DHT22;27586;51.124;4.182;2022-09-02T11:42:52;27.10;83.30
41904;DHT22;27586;51.124;4.182;2022-09-02T11:45:46;26.90;82.80
41904;DHT22;27586;51.124;4.182;2022-09-02T11:51:27;27.00;82.90
41904;DHT22;27586;51.124;4.182;2022-09-02T11:53:58;27.10;82.60
41904;DHT22;27586;51.124;4.182;2022-09-02T11:56:35;27.40;81.60
41904;DHT22;27586;51.124;4.182;2022-09-02T11:59:05;27.50;81.00
41904;DHT22;27586;51.124;4.182;2022-09-02T12:01:37;27.50;81.00
41904;DHT22;27586;51.124;4.182;2022-09-02T12:04:17;27.30;80.90
41904;DHT22;27586;51.124;4.182;2022-09-02T12:09:44;27.00;79.80
41904;DHT22;27586;51.124;4.182;2022-09-02T12:20:04;27.60;79.80
41904;DHT22;27586;51.124;4.182;2022-09-02T12:22:39;27.70;79.20
41904;DHT22;27586;51.124;4.182;2022-09-02T12:28:09;27.60;77.50
41904;DHT22;27586;51.124;4.182;2022-09-02T12:33:30;27.80;77.20
41904;DHT22;27586;51.124;4.182;2022-09-02T12:35:56;27.80;77.10
41904;DHT22;27586;51.124;4.182;2022-09-02T12:38:36;27.30;76.80
41904;DHT22;27586;51.124;4.182;2022-09-02T12:52:07;27.00;76.90
41904;DHT22;27586;51.124;4.182;2022-09-02T12:54:48;27.10;75.50
41904;DHT22;27586;51.124;4.182;2022-09-02T12:57:16;27.30;76.50
41904;DHT22;27586;51.124;4.182;2022-09-02T12:59:43;27.50;76.20
41904;DHT22;27586;51.124;4.182;2022-09-02T13:07:46;27.70;75.50
41904;DHT22;27586;51.124;4.182;2022-09-02T13:22:03;27.60;73.20
41904;DHT22;27586;51.124;4.182;2022-09-02T13:24:43;27.40;73.90
41904;DHT22;27586;51.124;4.182;2022-09-02T13:30:16;27.50;72.90
41904;DHT22;27586;51.124;4.182;2022-09-02T13:32:44;27.40;72.80
41904;DHT22;27586;51.124;4.182;2022-09-02T13:35:18;27.40;72.70
41904;DHT22;27586;51.124;4.182;2022-09-02T13:37:53;27.40;72.80
41904;DHT22;27586;51.124;4.182;2022-09-02T13:40:39;27.30;72.90
41904;DHT22;27586;51.124;4.182;2022-09-02T13:45:37;27.30;72.70
41904;DHT22;27586;51.124;4.182;2022-09-02T13:50:48;27.70;72.20
41904;DHT22;27586;51.124;4.182;2022-09-02T13:53:37;27.90;71.70
41904;DHT22;27586;51.124;4.182;2022-09-02T13:56:08;27.80;71.40
41904;DHT22;27586;51.124;4.182;2022-09-02T13:58:51;27.50;70.90
41904;DHT22;27586;51.124;4.182;2022-09-02T14:01:31;27.20;70.50
41904;DHT22;27586;51.124;4.182;2022-09-02T14:04:00;27.30;71.70
41904;DHT22;27586;51.124;4.182;2022-09-02T14:06:33;27.50;70.60
41904;DHT22;27586;51.124;4.182;2022-09-02T14:09:06;27.60;70.10
41904;DHT22;27586;51.124;4.182;2022-09-02T14:11:39;27.60;70.10
41904;DHT22;27586;51.124;4.182;2022-09-02T14:14:07;27.60;69.40
41904;DHT22;27586;51.124;4.182;2022-09-02T14:16:35;27.60;68.90
41904;DHT22;27586;51.124;4.182;2022-09-02T14:21:50;27.20;70.00
41904;DHT22;27586;51.124;4.182;2022-09-02T14:24:28;26.90;69.80
41904;DHT22;27586;51.124;4.182;2022-09-02T14:26:57;26.90;70.40
41904;DHT22;27586;51.124;4.182;2022-09-02T14:29:24;26.80;70.20
41904;DHT22;27586;51.124;4.182;2022-09-02T14:32:23;26.70;70.50
41904;DHT22;27586;51.124;4.182;2022-09-02T14:37:45;26.80;71.00
41904;DHT22;27586;51.124;4.182;2022-09-02T14:40:11;27.10;71.00
41904;DHT22;27586;51.124;4.182;2022-09-02T14:42:48;27.30;70.50
41904;DHT22;27586;51.124;4.182;2022-09-02T14:45:25;27.60;69.70
41904;DHT22;27586;51.124;4.182;2022-09-02T14:47:51;27.50;69.30
41904;DHT22;27586;51.124;4.182;2022-09-02T14:50:19;27.50;68.80
41904;DHT22;27586;51.124;4.182;2022-09-02T14:52:49;27.60;68.30
41904;DHT22;27586;51.124;4.182;2022-09-02T14:55:54;27.50;68.20
41904;DHT22;27586;51.124;4.182;2022-09-02T14:58:21;27.60;68.50
41904;DHT22;27586;51.124;4.182;2022-09-02T15:00:49;27.70;68.30
41904;DHT22;27586;51.124;4.182;2022-09-02T15:03:17;27.70;68.50
41904;DHT22;27586;51.124;4.182;2022-09-02T15:05:43;27.70;69.10
41904;DHT22;27586;51.124;4.182;2022-09-02T15:08:10;27.60;68.90
41904;DHT22;27586;51.124;4.182;2022-09-02T15:10:40;27.30;68.60
41904;DHT22;27586;51.124;4.182;2022-09-02T15:13:09;27.30;68.60
41904;DHT22;27586;51.124;4.182;2022-09-02T15:15:37;27.50;69.00
41904;DHT22;27586;51.124;4.182;2022-09-02T15:18:03;27.40;68.40
41904;DHT22;27586;51.124;4.182;2022-09-02T15:20:30;27.30;67.50
41904;DHT22;27586;51.124;4.182;2022-09-02T15:22:56;27.00;67.50
41904;DHT22;27586;51.124;4.182;2022-09-02T15:25:22;27.10;67.90
41904;DHT22;27586;51.124;4.182;2022-09-02T15:27:48;27.20;68.60
41904;DHT22;27586;51.124;4.182;2022-09-02T15:30:13;27.20;68.50
41904;DHT22;27586;51.124;4.182;2022-09-02T15:32:39;27.10;68.50
41904;DHT22;27586;51.124;4.182;2022-09-02T15:35:06;27.10;68.60
41904;DHT22;27586;51.124;4.182;2022-09-02T15:37:33;27.00;69.30
41904;DHT22;27586;51.124;4.182;2022-09-02T15:40:06;26.90;69.00
41904;DHT22;27586;51.124;4.182;2022-09-02T15:42:36;26.80;69.20
41904;DHT22;27586;51.124;4.182;2022-09-02T15:45:04;26.80;69.10
41904;DHT22;27586;51.124;4.182;2022-09-02T15:47:30;26.70;69.30
41904;DHT22;27586;51.124;4.182;2022-09-02T15:49:56;26.60;69.40
41904;DHT22;27586;51.124;4.182;2022-09-02T15:52:22;26.50;69.30
41904;DHT22;27586;51.124;4.182;2022-09-02T15:54:48;26.60;69.30
41904;DHT22;27586;51.124;4.182;2022-09-02T15:57:14;26.50;68.90
41904;DHT22;27586;51.124;4.182;2022-09-02T15:59:40;26.40;68.60
41904;DHT22;27586;51.124;4.182;2022-09-02T16:02:06;26.50;68.90
41904;DHT22;27586;51.124;4.182;2022-09-02T16:04:32;26.50;68.70
41904;DHT22;27586;51.124;4.182;2022-09-02T16:06:58;26.60;69.50
41904;DHT22;27586;51.124;4.182;2022-09-02T16:09:23;26.50;69.60
41904;DHT22;27586;51.124;4.182;2022-09-02T16:11:51;26.60;69.60
41904;DHT22;27586;51.124;4.182;2022-09-02T16:14:18;26.50;69.70
41904;DHT22;27586;51.124;4.182;2022-09-02T16:16:44;26.40;68.90
41904;DHT22;27586;51.124;4.182;2022-09-02T16:19:10;26.40;69.40
41904;DHT22;27586;51.124;4.182;2022-09-02T16:21:37;26.50;69.50
41904;DHT22;27586;51.124;4.182;2022-09-02T16:24:04;26.50;69.60
41904;DHT22;27586;51.124;4.182;2022-09-02T16:26:31;26.50;69.00
41904;DHT22;27586;51.124;4.182;2022-09-02T16:29:03;26.50;69.90
41904;DHT22;27586;51.124;4.182;2022-09-02T16:31:31;26.50;70.10
41904;DHT22;27586;51.124;4.182;2022-09-02T16:34:06;26.50;70.40
41904;DHT22;27586;51.124;4.182;2022-09-02T16:36:34;26.40;69.70
41904;DHT22;27586;51.124;4.182;2022-09-02T16:39:01;26.50;70.60
41904;DHT22;27586;51.124;4.182;2022-09-02T16:41:45;26.40;69.80
41904;DHT22;27586;51.124;4.182;2022-09-02T16:44:15;26.40;69.30
41904;DHT22;27586;51.124;4.182;2022-09-02T16:46:43;26.40;69.80
41904;DHT22;27586;51.124;4.182;2022-09-02T16:49:10;26.30;69.70
41904;DHT22;27586;51.124;4.182;2022-09-02T16:51:36;26.30;70.00
41904;DHT22;27586;51.124;4.182;2022-09-02T16:54:05;26.30;69.80
41904;DHT22;27586;51.124;4.182;2022-09-02T16:56:31;26.30;70.30
41904;DHT22;27586;51.124;4.182;2022-09-02T16:59:01;26.30;70.90
41904;DHT22;27586;51.124;4.182;2022-09-02T17:01:28;26.20;71.60
41904;DHT22;27586;51.124;4.182;2022-09-02T17:03:54;26.20;71.40
41904;DHT22;27586;51.124;4.182;2022-09-02T17:06:20;26.20;72.00
41904;DHT22;27586;51.124;4.182;2022-09-02T17:08:46;26.10;72.50
41904;DHT22;27586;51.124;4.182;2022-09-02T17:13:53;26.00;71.00
41904;DHT22;27586;51.124;4.182;2022-09-02T17:16:20;26.00;71.10
41904;DHT22;27586;51.124;4.182;2022-09-02T17:18:46;26.10;71.70
41904;DHT22;27586;51.124;4.182;2022-09-02T17:21:14;26.00;71.70
41904;DHT22;27586;51.124;4.182;2022-09-02T17:23:41;26.00;71.70
41904;DHT22;27586;51.124;4.182;2022-09-02T17:26:06;25.90;71.60
41904;DHT22;27586;51.124;4.182;2022-09-02T17:28:32;25.90;72.00
41904;DHT22;27586;51.124;4.182;2022-09-02T17:30:58;25.80;72.10
41904;DHT22;27586;51.124;4.182;2022-09-02T17:33:23;25.70;72.20
41904;DHT22;27586;51.124;4.182;2022-09-02T17:35:56;25.70;72.20
41904;DHT22;27586;51.124;4.182;2022-09-02T17:38:22;25.60;72.60
41904;DHT22;27586;51.124;4.182;2022-09-02T17:40:47;25.60;72.50
41904;DHT22;27586;51.124;4.182;2022-09-02T17:43:32;25.50;72.50
41904;DHT22;27586;51.124;4.182;2022-09-02T17:46:07;25.50;72.50
41904;DHT22;27586;51.124;4.182;2022-09-02T17:48:33;25.40;72.10
41904;DHT22;27586;51.124;4.182;2022-09-02T17:50:59;25.40;72.80
41904;DHT22;27586;51.124;4.182;2022-09-02T17:53:26;25.30;73.50
41904;DHT22;27586;51.124;4.182;2022-09-02T17:56:03;25.20;73.60